< < Back
Terminal Aerodrome Forecast


Current Version              Previous Versions:   1  2  3  4  5  6  7  8  9  

Terminal Aerodrome Forecast

840
FTUS42 KTAE 311700
TAFVLD
TAF
KVLD 311720Z 3118/0118 VRB03KT P6SM SCT060 SCT250
     FM312000 VRB04KT P6SM VCSH SCT060 SCT250
     FM010100 00000KT P6SM BKN250=



Latest METAR

838
SAUS70 KWBC 312100 RRI
MTRVLD
METAR KVLD 312053Z 00000KT 10SM SCT070 35/15 A2996 RMK AO2 SLP151
T03500150 56013


USA.gov is the U.S. government's official web portal to all federal, state and local government web resources and services.